Time;durP1;ratioP1;P1;durP2;ratioP2;P2;SDS_P1;SDS_P2;PMS_P1;PMS_P2;Temp;Humidity;BMP_temperature;BMP_pressure;BME280_temperature;BME280_humidity;BME280_pressure;Samples;Min_cycle;Max_cycle;Signal;HPM_P1;HPM_P2
2022/09/25 00:00:58;;;;;;;19.42;11.63;;;13.00;99.90;;;;;;7393918;32;20223;-61
2022/09/25 00:05:00;;;;;;;16.87;11.30;;;13.00;99.90;;;;;;7400007;32;20115;-61
2022/09/25 00:09:02;;;;;;;13.88;10.45;;;13.00;99.90;;;;;;7402460;32;20134;-60
2022/09/25 00:13:03;;;;;;;16.25;11.48;;;13.00;99.90;;;;;;7402618;32;20133;-60
2022/09/25 00:17:05;;;;;;;17.40;11.00;;;13.00;99.90;;;;;;7399507;32;20102;-60
2022/09/25 00:21:13;;;;;;;21.67;11.02;;;12.90;99.90;;;;;;7389661;32;20102;-60
2022/09/25 00:25:16;;;;;;;16.25;10.52;;;12.90;99.90;;;;;;7394748;32;20209;-60
2022/09/25 00:29:19;;;;;;;17.58;9.68;;;12.90;99.90;;;;;;7400341;32;20141;-60
2022/09/25 00:33:21;;;;;;;15.25;10.25;;;12.90;99.90;;;;;;7402045;31;20574;-60
2022/09/25 00:37:23;;;;;;;12.37;8.20;;;12.90;99.90;;;;;;7393926;32;20178;-60
2022/09/25 00:41:27;;;;;;;13.80;7.90;;;12.90;99.90;;;;;;7394148;32;20545;-60
2022/09/25 00:45:28;;;;;;;17.52;7.30;;;12.90;99.90;;;;;;7396873;32;20193;-60
2022/09/25 00:49:30;;;;;;;11.38;6.40;;;12.90;99.90;;;;;;7393184;32;20522;-60
2022/09/25 00:53:37;;;;;;;14.20;6.12;;;12.90;99.90;;;;;;7400397;32;20103;-60
2022/09/25 00:57:42;;;;;;;12.88;5.78;;;12.90;99.90;;;;;;7401876;31;20618;-60
2022/09/25 01:01:45;;;;;;;9.35;5.10;;;12.90;99.90;;;;;;7401860;32;20110;-60
2022/09/25 01:05:48;;;;;;;11.60;5.20;;;12.80;99.90;;;;;;7393957;32;20198;-60
2022/09/25 01:09:50;;;;;;;13.82;4.90;;;12.80;99.90;;;;;;7399438;32;20144;-60
2022/09/25 01:13:55;;;;;;;11.25;3.55;;;12.80;99.90;;;;;;7400317;32;20537;-60
2022/09/25 01:18:27;;;;;;;10.63;3.25;;;12.80;99.90;;;;;;7396412;32;20149;-60
2022/09/25 01:22:50;;;;;;;13.38;3.92;;;12.80;99.90;;;;;;7399706;32;20543;-60
2022/09/25 01:27:24;;;;;;;9.57;3.75;;;12.70;99.90;;;;;;7397955;32;20723;-60
2022/09/25 01:31:54;;;;;;;11.30;4.30;;;12.60;99.90;;;;;;7398833;32;20133;-60
2022/09/25 01:36:00;;;;;;;14.30;4.65;;;12.60;99.90;;;;;;7397470;32;20210;-59
2022/09/25 01:40:15;;;;;;;12.35;5.07;;;12.60;99.90;;;;;;7396547;32;20114;-59
2022/09/25 01:44:27;;;;;;;13.52;6.18;;;12.60;99.90;;;;;;7393598;32;20590;-61
2022/09/25 01:48:32;;;;;;;15.68;5.82;;;12.70;99.90;;;;;;7396252;31;20206;-60
2022/09/25 01:52:47;;;;;;;10.50;5.47;;;12.70;99.90;;;;;;7398151;32;20201;-60
2022/09/25 01:56:57;;;;;;;10.93;5.20;;;12.60;99.90;;;;;;7398478;32;20601;-60
2022/09/25 02:01:09;;;;;;;11.77;5.47;;;12.60;99.90;;;;;;7393683;32;20201;-60
2022/09/25 02:05:21;;;;;;;26.27;5.90;;;12.50;99.90;;;;;;7393888;32;20111;-61
2022/09/25 02:09:37;;;;;;;10.88;4.85;;;12.40;99.90;;;;;;7393811;32;20111;-60
2022/09/25 02:14:02;;;;;;;12.20;5.60;;;12.30;99.90;;;;;;7389005;32;20209;-60
2022/09/25 02:22:34;;;;;;;12.57;4.82;;;12.20;99.90;;;;;;7392517;32;20231;-60
2022/09/25 02:26:37;;;;;;;7.43;4.00;;;12.20;99.90;;;;;;7397765;31;20276;-61
2022/09/25 02:30:39;;;;;;;9.63;3.67;;;12.20;99.90;;;;;;7393346;32;20281;-61
2022/09/25 02:34:40;;;;;;;11.10;3.75;;;12.20;99.90;;;;;;7391191;32;20111;-60
2022/09/25 02:38:42;;;;;;;8.35;3.53;;;12.10;99.90;;;;;;7390956;32;20102;-60
2022/09/25 02:43:05;;;;;;;15.25;3.92;;;12.10;99.90;;;;;;7397763;32;20470;-60
2022/09/25 02:47:18;;;;;;;12.35;3.80;;;12.00;99.90;;;;;;7375770;32;20125;-61
2022/09/25 02:51:45;;;;;;;11.45;3.53;;;12.00;99.90;;;;;;7397245;32;20137;-60
2022/09/25 02:56:01;;;;;;;7.85;3.08;;;12.00;99.90;;;;;;7399177;32;20202;-60
2022/09/25 03:00:06;;;;;;;14.87;3.67;;;12.00;99.90;;;;;;7395752;32;20229;-61
2022/09/25 03:04:09;;;;;;;13.32;3.10;;;11.90;99.90;;;;;;7394755;32;20131;-60
2022/09/25 03:12:35;;;;;;;14.45;3.70;;;12.00;99.90;;;;;;7396976;32;20170;-61
2022/09/25 03:16:50;;;;;;;14.57;4.20;;;11.90;99.90;;;;;;7394099;31;20129;-61
2022/09/25 03:20:52;;;;;;;8.20;2.80;;;11.90;99.90;;;;;;7395607;32;20119;-61
2022/09/25 03:24:53;;;;;;;13.93;3.17;;;11.90;99.90;;;;;;7394614;32;20233;-60
2022/09/25 03:28:56;;;;;;;12.88;3.08;;;11.90;99.90;;;;;;7400812;32;20574;-60
2022/09/25 03:32:57;;;;;;;10.15;2.90;;;12.00;99.90;;;;;;7398195;32;20106;-61
2022/09/25 03:36:59;;;;;;;11.93;2.40;;;12.00;99.90;;;;;;7396609;32;20206;-60
2022/09/25 03:41:01;;;;;;;14.07;2.53;;;12.00;99.90;;;;;;7407713;32;20133;-61
2022/09/25 03:45:05;;;;;;;7.75;2.28;;;11.90;99.90;;;;;;7398504;32;20102;-61
2022/09/25 03:49:07;;;;;;;10.43;2.62;;;11.90;99.90;;;;;;7410293;31;20145;-60
2022/09/25 03:53:09;;;;;;;11.35;2.17;;;11.70;99.90;;;;;;7401866;32;20141;-60
2022/09/25 03:57:11;;;;;;;8.32;2.12;;;11.80;99.90;;;;;;7406877;32;20165;-61
2022/09/25 04:01:14;;;;;;;11.10;2.35;;;11.80;99.90;;;;;;7395689;31;20623;-61
2022/09/25 04:05:17;;;;;;;11.32;2.42;;;11.80;99.90;;;;;;7405132;32;20665;-61
2022/09/25 04:09:19;;;;;;;10.55;2.37;;;11.70;99.90;;;;;;7395390;32;20200;-61
2022/09/25 04:13:25;;;;;;;8.73;2.25;;;11.80;99.90;;;;;;7397577;32;20427;-62
2022/09/25 04:17:28;;;;;;;8.25;2.22;;;11.80;99.90;;;;;;7397317;32;20115;-61
2022/09/25 04:21:29;;;;;;;11.18;2.53;;;11.60;99.90;;;;;;7398085;32;20201;-61
2022/09/25 04:25:31;;;;;;;8.85;2.40;;;11.60;99.90;;;;;;7401037;32;20110;-61
2022/09/25 04:29:33;;;;;;;9.85;2.95;;;11.60;99.90;;;;;;7397820;32;20119;-60
2022/09/25 04:33:47;;;;;;;12.75;2.65;;;11.50;99.90;;;;;;7398044;32;20126;-61
2022/09/25 04:37:49;;;;;;;9.85;2.40;;;11.40;99.90;;;;;;7397494;32;21087;-60
2022/09/25 04:41:50;;;;;;;11.10;2.92;;;11.30;99.90;;;;;;7391832;32;20110;-61
2022/09/25 04:45:52;;;;;;;12.27;2.42;;;11.20;99.90;;;;;;7399424;32;20415;-61
2022/09/25 04:49:54;;;;;;;10.65;2.83;;;11.10;99.90;;;;;;7394669;32;20273;-60
2022/09/25 04:53:56;;;;;;;8.57;2.42;;;11.00;99.90;;;;;;7401299;32;20127;-60
2022/09/25 04:57:59;;;;;;;8.25;2.83;;;11.00;99.90;;;;;;7396459;32;20141;-60
2022/09/25 05:02:01;;;;;;;8.95;3.00;;;10.90;99.90;;;;;;7400645;32;20149;-60
2022/09/25 05:06:03;;;;;;;14.18;2.95;;;10.90;99.90;;;;;;7394748;31;20119;-60
2022/09/25 05:10:07;;;;;;;9.55;2.90;;;10.80;99.90;;;;;;7383980;32;20753;-61
2022/09/25 05:14:09;;;;;;;5.72;2.30;;;10.80;99.90;;;;;;7384049;31;20705;-61
2022/09/25 05:18:20;;;;;;;7.90;2.45;;;10.80;99.90;;;;;;7369113;32;20377;-60
2022/09/25 05:22:21;;;;;;;6.70;2.28;;;10.70;99.90;;;;;;7383580;32;20107;-60
2022/09/25 05:26:23;;;;;;;10.70;3.10;;;10.70;99.90;;;;;;7398194;32;20106;-59
2022/09/25 05:30:27;;;;;;;9.10;2.35;;;10.70;99.90;;;;;;7382149;32;20111;-62
2022/09/25 05:34:28;;;;;;;10.43;2.10;;;10.60;99.90;;;;;;7391975;32;20204;-63
2022/09/25 05:38:35;;;;;;;7.55;2.55;;;10.60;99.90;;;;;;7382976;32;20212;-62
2022/09/25 05:42:37;;;;;;;11.63;2.67;;;10.50;99.90;;;;;;7392069;32;20133;-62
2022/09/25 05:46:39;;;;;;;11.20;2.95;;;10.50;99.90;;;;;;7388424;32;20204;-61
2022/09/25 05:50:41;;;;;;;7.65;3.05;;;10.50;99.90;;;;;;7384474;32;20186;-63
2022/09/25 05:54:42;;;;;;;9.07;2.65;;;10.50;99.90;;;;;;7397808;31;20140;-64
2022/09/25 05:58:44;;;;;;;7.47;2.33;;;10.50;99.90;;;;;;7390671;32;20171;-64
2022/09/25 06:02:51;;;;;;;6.28;2.03;;;10.60;99.90;;;;;;7393165;31;20194;-67
2022/09/25 06:06:53;;;;;;;10.27;2.70;;;10.60;99.90;;;;;;7381093;32;20197;-64
2022/09/25 06:10:55;;;;;;;13.90;2.05;;;10.60;99.90;;;;;;7382332;32;20107;-63
2022/09/25 06:14:57;;;;;;;8.98;2.30;;;10.70;99.90;;;;;;7386176;32;20213;-64
2022/09/25 06:18:58;;;;;;;7.62;2.50;;;10.70;99.90;;;;;;7383258;32;20900;-65
2022/09/25 06:23:00;;;;;;;12.77;2.70;;;10.80;99.90;;;;;;7375619;32;21166;-67
2022/09/25 06:27:02;;;;;;;6.78;2.60;;;10.80;99.90;;;;;;7386894;32;20915;-64
2022/09/25 06:31:04;;;;;;;12.68;4.32;;;10.90;99.90;;;;;;7382281;32;20157;-63
2022/09/25 06:35:06;;;;;;;11.75;3.67;;;11.00;99.90;;;;;;7393818;32;20181;-65
2022/09/25 06:39:08;;;;;;;7.32;2.40;;;11.10;99.90;;;;;;7390338;32;20236;-65
2022/09/25 06:43:12;;;;;;;11.38;2.95;;;11.10;99.90;;;;;;7388529;32;20462;-65
2022/09/25 06:47:13;;;;;;;13.77;3.22;;;11.10;99.90;;;;;;7387569;32;20559;-64
2022/09/25 06:51:22;;;;;;;7.35;2.05;;;11.20;99.90;;;;;;7389839;32;20118;-65
2022/09/25 06:55:25;;;;;;;12.02;2.33;;;11.30;99.90;;;;;;7393268;32;20845;-64
2022/09/25 06:59:26;;;;;;;12.00;4.78;;;11.40;99.90;;;;;;7394169;32;20128;-67
2022/09/25 07:03:43;;;;;;;19.42;9.18;;;11.50;99.90;;;;;;7396307;32;20249;-64
2022/09/25 07:07:46;;;;;;;9.13;2.37;;;11.50;99.90;;;;;;7390581;32;20141;-64
2022/09/25 07:11:49;;;;;;;9.90;3.10;;;11.70;99.90;;;;;;7382671;32;20246;-64
2022/09/25 07:15:59;;;;;;;9.85;2.15;;;11.80;99.90;;;;;;7387139;32;20193;-64
2022/09/25 07:20:01;;;;;;;9.20;2.17;;;12.00;99.90;;;;;;7392505;32;20257;-65
2022/09/25 07:24:02;;;;;;;13.95;1.90;;;12.00;99.90;;;;;;7384449;32;20257;-64
2022/09/25 07:28:06;;;;;;;9.60;1.85;;;12.10;99.90;;;;;;7380447;32;20342;-62
2022/09/25 07:32:08;;;;;;;6.18;1.48;;;12.10;99.90;;;;;;7382086;32;21872;-64
2022/09/25 07:36:10;;;;;;;5.40;1.45;;;12.20;99.90;;;;;;7394377;32;20111;-65
2022/09/25 07:40:13;;;;;;;8.75;2.00;;;12.30;99.90;;;;;;7390269;32;20240;-63
2022/09/25 07:44:15;;;;;;;10.80;2.17;;;12.20;99.90;;;;;;7389896;32;20482;-63
2022/09/25 07:48:37;;;;;;;6.43;1.48;;;12.20;99.90;;;;;;7395749;32;20540;-63
2022/09/25 07:52:38;;;;;;;10.30;2.17;;;12.10;99.90;;;;;;7394237;32;20129;-64
2022/09/25 07:56:40;;;;;;;8.70;1.65;;;12.10;99.90;;;;;;7391598;32;20185;-64
2022/09/25 08:00:42;;;;;;;11.52;1.73;;;12.10;99.90;;;;;;7389501;32;20194;-64
2022/09/25 08:04:43;;;;;;;12.35;2.00;;;12.00;99.90;;;;;;7389536;32;20118;-63
2022/09/25 08:08:45;;;;;;;5.80;1.67;;;12.10;99.90;;;;;;7391989;32;20128;-64
2022/09/25 08:12:47;;;;;;;9.35;1.30;;;12.10;99.90;;;;;;7398000;32;20598;-64
2022/09/25 08:16:48;;;;;;;10.73;1.23;;;12.20;99.90;;;;;;7393331;32;20107;-64
2022/09/25 08:20:51;;;;;;;7.57;1.30;;;12.40;99.90;;;;;;7389956;32;20270;-59
2022/09/25 08:24:53;;;;;;;10.40;1.37;;;12.60;99.90;;;;;;7386895;32;20466;-58
2022/09/25 08:28:55;;;;;;;9.43;1.67;;;12.90;99.90;;;;;;7389305;32;20281;-63
2022/09/25 08:32:57;;;;;;;9.07;1.20;;;13.20;99.90;;;;;;7396978;32;20115;-65
2022/09/25 08:36:59;;;;;;;7.80;1.17;;;13.30;99.90;;;;;;7404352;32;20115;-63
2022/09/25 08:41:29;;;;;;;8.38;1.05;;;13.20;99.90;;;;;;7395294;32;20111;-65
2022/09/25 08:50:11;;;;;;;10.63;1.23;;;13.50;99.90;;;;;;7390448;32;20198;-64
2022/09/25 08:54:25;;;;;;;6.93;1.10;;;13.40;99.90;;;;;;7394283;32;20666;-64
2022/09/25 08:58:39;;;;;;;10.40;1.60;;;13.60;99.90;;;;;;7395690;32;20110;-64
2022/09/25 09:02:45;;;;;;;7.97;1.00;;;13.60;99.90;;;;;;7394424;32;20142;-65
2022/09/25 09:06:51;;;;;;;10.20;1.00;;;13.70;99.90;;;;;;7386181;32;20539;-64
2022/09/25 09:11:21;;;;;;;12.77;1.12;;;13.60;99.90;;;;;;7378151;32;20110;-64
2022/09/25 09:15:41;;;;;;;9.80;0.80;;;13.60;99.90;;;;;;7386993;32;20133;-66
2022/09/25 09:19:47;;;;;;;7.30;1.05;;;14.00;99.90;;;;;;7387871;32;21385;-64
2022/09/25 09:24:03;;;;;;;6.65;0.93;;;14.30;99.90;;;;;;7397688;32;20126;-65
2022/09/25 09:28:33;;;;;;;7.95;0.75;;;14.70;99.90;;;;;;7388687;32;20181;-65
2022/09/25 09:33:01;;;;;;;8.13;1.08;;;15.30;99.90;;;;;;7398335;32;20137;-65
2022/09/25 09:37:24;;;;;;;5.95;1.10;;;16.40;99.90;;;;;;7390298;32;20111;-65
2022/09/25 09:41:53;;;;;;;7.30;0.93;;;17.40;99.90;;;;;;7391905;32;20111;-66
2022/09/25 09:46:29;;;;;;;9.32;1.10;;;17.50;99.90;;;;;;7397191;32;20114;-66
2022/09/25 09:50:45;;;;;;;5.87;0.85;;;17.40;99.90;;;;;;7377503;32;20224;-68
2022/09/25 09:54:59;;;;;;;3.55;0.50;;;18.50;99.90;;;;;;7384346;32;20139;-66
2022/09/25 09:59:05;;;;;;;4.97;0.65;;;18.30;99.90;;;;;;7384824;32;20661;-67
2022/09/25 10:03:18;;;;;;;5.07;0.77;;;17.60;99.90;;;;;;7389071;32;20286;-65
2022/09/25 10:07:22;;;;;;;4.50;0.70;;;16.80;99.90;;;;;;7385428;32;20123;-66
2022/09/25 10:11:25;;;;;;;4.22;0.62;;;16.60;99.90;;;;;;7397188;31;20134;-66
2022/09/25 10:15:41;;;;;;;3.67;0.70;;;18.00;99.90;;;;;;7398208;32;20137;-64
2022/09/25 10:19:47;;;;;;;3.25;0.60;;;19.00;99.90;;;;;;7395416;32;20138;-65
2022/09/25 10:23:58;;;;;;;5.57;0.73;;;19.60;99.90;;;;;;7402679;32;20378;-65
2022/09/25 10:28:00;;;;;;;3.78;0.77;;;19.50;99.90;;;;;;7394800;32;20115;-60
2022/09/25 10:32:03;;;;;;;6.70;0.80;;;19.20;99.90;;;;;;7399198;32;20228;-66
2022/09/25 10:36:05;;;;;;;6.05;0.80;;;18.60;99.90;;;;;;7390296;32;20115;-66
2022/09/25 10:40:24;;;;;;;4.65;0.60;;;18.10;99.90;;;;;;7391189;32;20527;-65
2022/09/25 10:44:35;;;;;;;1.85;0.50;;;17.50;99.90;;;;;;7391792;32;20115;-66
2022/09/25 10:52:58;;;;;;;6.12;0.80;;;16.40;99.90;;;;;;7393910;32;20106;-66
2022/09/25 10:57:12;;;;;;;3.87;0.80;;;16.30;99.90;;;;;;7378717;32;20115;-67
2022/09/25 11:01:15;;;;;;;4.43;0.77;;;16.00;99.90;;;;;;7394432;32;20578;-67
2022/09/25 11:05:26;;;;;;;10.27;0.75;;;15.90;99.90;;;;;;7385155;31;20598;-69
2022/09/25 11:09:31;;;;;;;6.70;1.15;;;15.80;99.90;;;;;;7387990;32;20111;-66
2022/09/25 11:13:45;;;;;;;2.72;0.45;;;15.70;99.90;;;;;;7375315;32;20133;-68
2022/09/25 11:17:50;;;;;;;4.22;0.60;;;16.00;99.90;;;;;;7388243;32;20572;-66
2022/09/25 11:22:03;;;;;;;3.30;0.45;;;16.00;99.90;;;;;;7390405;31;20243;-66
2022/09/25 11:26:14;;;;;;;2.78;0.50;;;16.00;99.90;;;;;;7385286;32;20206;-66
2022/09/25 11:30:18;;;;;;;3.72;0.60;;;16.20;99.90;;;;;;7386853;32;20119;-66
2022/09/25 11:34:59;;;;;;;4.12;0.52;;;16.40;99.90;;;;;;7392923;32;20604;-67
2022/09/25 11:44:05;;;;;;;4.45;0.57;;;16.30;99.90;;;;;;7390547;32;20129;-60
2022/09/25 11:48:41;;;;;;;3.60;0.77;;;16.10;99.90;;;;;;7389998;32;20627;-66
2022/09/25 11:52:50;;;;;;;5.97;0.50;;;16.40;99.90;;;;;;7389914;32;20219;-58
2022/09/25 11:57:02;;;;;;;6.40;0.50;;;16.80;99.90;;;;;;7391455;32;20132;-58
2022/09/25 12:01:33;;;;;;;8.95;4.22;;;16.90;99.90;;;;;;7402275;32;20123;-68
2022/09/25 12:06:01;;;;;;;198.23;139.05;;;17.10;99.90;;;;;;7399274;32;20713;-67
2022/09/25 12:10:12;;;;;;;;;;;17.40;99.90;;;;;;7395158;32;20125;-66
2022/09/25 12:14:37;;;;;;;4.30;1.00;;;17.60;99.90;;;;;;7392981;32;20099;-66
2022/09/25 12:18:49;;;;;;;6.20;0.80;;;17.60;99.90;;;;;;7398474;32;20110;-67
2022/09/25 12:23:12;;;;;;;3.72;0.65;;;17.40;99.90;;;;;;7399517;32;20178;-68
2022/09/25 12:27:34;;;;;;;4.20;1.05;;;17.10;99.90;;;;;;7397717;32;20650;-67
2022/09/25 12:32:08;;;;;;;5.00;0.73;;;16.70;99.90;;;;;;7398206;32;20794;-67
2022/09/25 12:36:26;;;;;;;6.30;0.93;;;16.90;99.90;;;;;;7394249;32;20556;-63
2022/09/25 12:40:37;;;;;;;7.62;0.70;;;17.00;99.90;;;;;;7395194;32;20122;-67
2022/09/25 12:44:42;;;;;;;4.90;0.73;;;17.10;99.90;;;;;;7400495;32;20126;-67
2022/09/25 12:49:15;;;;;;;4.80;0.73;;;17.40;99.90;;;;;;7393503;32;20141;-66
2022/09/25 12:53:21;;;;;;;4.18;0.85;;;17.30;99.90;;;;;;7391523;32;20144;-66
2022/09/25 12:57:35;;;;;;;5.65;1.02;;;17.30;99.90;;;;;;7394839;32;20166;-66
2022/09/25 13:01:59;;;;;;;4.55;1.02;;;17.50;99.90;;;;;;7395274;32;20221;-67
2022/09/25 13:06:13;;;;;;;5.43;0.90;;;17.60;99.90;;;;;;7392965;32;20114;-68
2022/09/25 13:10:36;;;;;;;3.22;0.77;;;17.30;99.90;;;;;;7388760;32;20141;-66
2022/09/25 13:14:45;;;;;;;3.25;0.75;;;17.10;99.90;;;;;;7388375;32;20118;-66
2022/09/25 13:19:07;;;;;;;5.93;1.10;;;17.30;99.90;;;;;;7388556;32;20265;-66
2022/09/25 13:23:24;;;;;;;5.35;0.90;;;17.40;99.90;;;;;;7391392;32;20166;-66
2022/09/25 13:27:29;;;;;;;4.87;0.93;;;17.40;99.90;;;;;;7390866;32;20181;-66
2022/09/25 13:31:41;;;;;;;6.10;1.25;;;17.20;99.90;;;;;;7377006;32;20133;-67
2022/09/25 13:35:45;;;;;;;6.80;1.10;;;16.80;99.90;;;;;;7397433;32;20133;-67
2022/09/25 13:44:43;;;;;;;3.05;0.95;;;16.20;99.90;;;;;;7405903;32;20113;-67
2022/09/25 13:48:45;;;;;;;4.05;1.00;;;16.00;99.90;;;;;;7402421;32;20140;-66
2022/09/25 13:52:47;;;;;;;2.90;1.00;;;15.90;99.90;;;;;;7399167;31;20107;-66
2022/09/25 13:56:52;;;;;;;5.07;1.10;;;15.60;99.90;;;;;;7402404;32;20129;-68
2022/09/25 14:00:57;;;;;;;4.53;1.20;;;15.50;99.90;;;;;;7391772;32;20110;-63
2022/09/25 14:04:59;;;;;;;2.37;0.80;;;15.70;99.90;;;;;;7391847;32;20183;-60
2022/09/25 14:09:14;;;;;;;5.25;0.93;;;16.20;99.90;;;;;;7390440;32;20229;-67
2022/09/25 14:13:22;;;;;;;3.08;0.80;;;16.70;99.90;;;;;;7393764;32;20129;-66
2022/09/25 14:17:29;;;;;;;2.60;0.80;;;17.10;99.90;;;;;;7396950;32;20114;-64
2022/09/25 14:21:33;;;;;;;3.35;0.60;;;17.50;99.90;;;;;;7387564;32;20565;-66
2022/09/25 14:25:37;;;;;;;4.85;0.95;;;17.50;99.90;;;;;;7396962;32;20388;-65
2022/09/25 14:29:41;;;;;;;2.17;0.32;;;17.60;99.90;;;;;;7396801;32;20103;-64
2022/09/25 14:34:29;;;;;;;2.97;0.60;;;17.60;99.90;;;;;;7397991;32;20216;-65
2022/09/25 14:38:49;;;;;;;1.17;0.30;;;17.00;99.90;;;;;;7397124;32;20129;-66
2022/09/25 14:43:14;;;;;;;1.58;0.30;;;16.50;99.90;;;;;;7397975;32;20107;-66
2022/09/25 14:47:17;;;;;;;1.60;0.40;;;16.20;99.90;;;;;;7371424;32;20126;-64
2022/09/25 14:51:25;;;;;;;4.62;0.50;;;16.00;99.90;;;;;;7395129;32;20138;-64
2022/09/25 14:55:37;;;;;;;2.75;0.60;;;15.90;99.90;;;;;;7395277;32;20111;-64
2022/09/25 14:59:42;;;;;;;2.87;0.70;;;15.80;99.90;;;;;;7395477;32;20466;-64
2022/09/25 15:03:47;;;;;;;3.33;0.60;;;15.50;99.90;;;;;;7396336;32;20140;-66
2022/09/25 15:07:49;;;;;;;2.08;0.50;;;15.30;99.90;;;;;;7398228;32;20207;-65
2022/09/25 15:11:53;;;;;;;1.73;0.70;;;15.20;99.90;;;;;;7398832;32;20130;-64
2022/09/25 15:20:23;;;;;;;2.58;0.60;;;15.00;99.90;;;;;;7395959;32;20133;-65
2022/09/25 15:24:30;;;;;;;4.03;0.62;;;15.10;99.90;;;;;;7401952;32;20170;-64
2022/09/25 15:28:39;;;;;;;6.47;0.60;;;15.00;99.90;;;;;;7396776;32;20224;-66
2022/09/25 15:32:46;;;;;;;5.53;1.70;;;15.00;99.90;;;;;;7393171;32;20564;-65
2022/09/25 15:36:49;;;;;;;4.53;2.67;;;15.00;99.90;;;;;;7392782;32;20141;-65
2022/09/25 15:40:55;;;;;;;4.40;0.90;;;14.90;99.90;;;;;;7393300;32;20110;-67
2022/09/25 15:45:00;;;;;;;5.40;1.25;;;14.90;99.90;;;;;;7390524;32;20166;-63
2022/09/25 15:49:02;;;;;;;4.03;0.93;;;14.80;99.90;;;;;;7381837;32;20454;-65
2022/09/25 15:53:04;;;;;;;3.75;0.75;;;14.90;99.90;;;;;;7379841;32;20136;-63
2022/09/25 15:57:15;;;;;;;2.78;0.85;;;14.90;99.90;;;;;;7378602;32;20291;-63
2022/09/25 16:05:51;;;;;;;6.65;3.75;;;14.80;99.90;;;;;;7386121;32;20244;-63
2022/09/25 16:09:56;;;;;;;8.70;1.45;;;14.70;99.90;;;;;;7377268;32;20220;-64
2022/09/25 16:14:19;;;;;;;3.35;1.10;;;14.60;99.90;;;;;;7379826;32;20107;-64
2022/09/25 16:18:38;;;;;;;4.93;0.90;;;14.60;99.90;;;;;;7379620;32;20193;-64
2022/09/25 16:22:46;;;;;;;7.10;1.15;;;14.60;99.90;;;;;;7383817;32;20114;-62
2022/09/25 16:26:54;;;;;;;7.22;1.40;;;14.60;99.90;;;;;;7377500;32;20237;-65
2022/09/25 16:31:03;;;;;;;5.50;2.40;;;14.50;99.90;;;;;;7378460;32;20254;-66
2022/09/25 16:35:05;;;;;;;8.25;2.45;;;14.40;99.90;;;;;;7376008;32;20138;-64
2022/09/25 16:39:07;;;;;;;5.55;1.50;;;14.30;99.90;;;;;;7385505;32;20596;-64
2022/09/25 16:43:24;;;;;;;4.43;1.50;;;14.10;99.90;;;;;;7362110;32;20194;-65
2022/09/25 16:47:27;;;;;;;3.53;1.20;;;14.00;99.90;;;;;;7380628;32;20193;-64
2022/09/25 16:51:30;;;;;;;5.93;1.77;;;13.90;99.90;;;;;;7390660;32;20186;-63
2022/09/25 16:55:35;;;;;;;5.30;1.58;;;13.90;99.90;;;;;;7392243;32;20771;-65
2022/09/25 16:59:38;;;;;;;5.55;1.42;;;13.80;99.90;;;;;;7368634;32;20178;-66
2022/09/25 17:03:48;;;;;;;4.95;1.92;;;13.70;99.90;;;;;;7390984;32;20106;-65
2022/09/25 17:07:54;;;;;;;4.10;1.70;;;13.60;99.90;;;;;;7389197;32;20129;-67
2022/09/25 17:12:02;;;;;;;3.85;1.50;;;13.60;99.90;;;;;;7399545;32;20234;-66
2022/09/25 17:16:04;;;;;;;4.80;1.60;;;13.40;99.90;;;;;;7391923;32;20136;-65
2022/09/25 17:20:10;;;;;;;6.75;2.42;;;13.40;99.90;;;;;;7398635;32;20198;-66
2022/09/25 17:24:12;;;;;;;4.20;1.60;;;13.30;99.90;;;;;;7393688;32;21313;-68
2022/09/25 17:28:14;;;;;;;3.85;1.75;;;13.30;99.90;;;;;;7397123;32;20106;-67
2022/09/25 17:32:16;;;;;;;7.07;4.72;;;13.20;99.90;;;;;;7362908;31;20482;-65
2022/09/25 17:36:18;;;;;;;12.98;7.82;;;13.10;99.90;;;;;;7386894;32;20157;-65
2022/09/25 17:40:20;;;;;;;11.15;8.07;;;12.90;99.90;;;;;;7400076;32;20114;-64
2022/09/25 17:44:22;;;;;;;7.93;6.12;;;12.80;99.90;;;;;;7392466;32;20159;-64
2022/09/25 17:48:26;;;;;;;6.30;4.82;;;12.60;99.90;;;;;;7394966;31;20137;-63
2022/09/25 17:52:28;;;;;;;7.00;4.25;;;12.40;99.90;;;;;;7392235;32;20552;-64
2022/09/25 17:56:29;;;;;;;8.18;5.35;;;12.30;99.90;;;;;;7397464;32;20146;-64
2022/09/25 18:00:31;;;;;;;11.55;5.65;;;12.00;99.90;;;;;;7391994;32;20139;-64
2022/09/25 18:04:33;;;;;;;8.80;5.97;;;11.80;99.90;;;;;;7395588;32;20282;-63
2022/09/25 18:08:35;;;;;;;15.60;9.80;;;11.60;99.90;;;;;;7392230;32;20128;-61
2022/09/25 18:12:36;;;;;;;7.93;7.12;;;11.40;99.90;;;;;;7391736;32;20227;-60
2022/09/25 18:16:40;;;;;;;13.65;9.52;;;11.30;99.90;;;;;;7400424;32;20808;-64
2022/09/25 18:25:09;;;;;;;9.93;8.30;;;11.10;99.90;;;;;;7375764;32;20148;-61
2022/09/25 18:29:15;;;;;;;12.25;9.48;;;11.00;99.90;;;;;;7394188;32;20289;-62
2022/09/25 18:33:17;;;;;;;9.60;7.97;;;11.00;99.90;;;;;;7386691;32;22760;-62
2022/09/25 18:37:19;;;;;;;23.05;13.43;;;10.90;99.90;;;;;;7390310;32;20125;-64
2022/09/25 18:41:21;;;;;;;29.08;18.15;;;10.80;99.90;;;;;;7397043;32;20137;-64
2022/09/25 18:45:22;;;;;;;8.65;6.00;;;10.80;99.90;;;;;;7389413;32;20253;-64
2022/09/25 18:49:25;;;;;;;10.18;4.62;;;10.80;99.90;;;;;;7387968;32;20474;-61
2022/09/25 18:53:27;;;;;;;6.05;2.50;;;10.80;99.90;;;;;;7390243;32;20111;-65
2022/09/25 18:57:28;;;;;;;8.90;2.22;;;10.70;99.90;;;;;;7396189;32;20240;-66
2022/09/25 19:01:30;;;;;;;4.62;2.65;;;10.70;99.90;;;;;;7389565;32;20101;-65
2022/09/25 19:05:32;;;;;;;3.97;2.30;;;10.70;99.90;;;;;;7387134;32;20146;-63
2022/09/25 19:09:34;;;;;;;7.55;3.87;;;10.80;99.90;;;;;;7395820;32;20269;-62
2022/09/25 19:13:35;;;;;;;8.68;4.40;;;10.70;99.90;;;;;;7391470;32;20102;-63
2022/09/25 19:17:37;;;;;;;7.07;2.78;;;10.70;99.90;;;;;;7390760;32;20159;-64
2022/09/25 19:21:40;;;;;;;12.63;5.75;;;10.70;99.90;;;;;;7392860;32;20455;-64
2022/09/25 19:25:54;;;;;;;17.08;7.50;;;10.70;99.90;;;;;;7394173;32;20455;-62
2022/09/25 19:29:56;;;;;;;11.43;4.65;;;10.80;99.90;;;;;;7390108;32;20216;-62
2022/09/25 19:33:59;;;;;;;10.52;2.78;;;10.70;99.90;;;;;;7389133;32;20234;-63
2022/09/25 19:38:01;;;;;;;7.12;1.92;;;10.70;99.90;;;;;;7394657;32;20126;-62
2022/09/25 19:42:04;;;;;;;7.28;4.47;;;10.60;99.90;;;;;;7390706;32;20293;-62
2022/09/25 19:46:05;;;;;;;5.78;2.62;;;10.60;99.90;;;;;;7393862;32;20160;-62
2022/09/25 19:50:09;;;;;;;5.37;1.55;;;10.60;99.90;;;;;;7393136;32;20115;-65
2022/09/25 19:54:13;;;;;;;5.03;2.05;;;10.50;99.90;;;;;;7389011;32;20111;-64
2022/09/25 19:58:14;;;;;;;2.92;1.35;;;10.40;99.90;;;;;;7391483;32;20198;-63
2022/09/25 20:02:23;;;;;;;3.85;1.20;;;10.30;99.90;;;;;;7388170;32;20228;-63
2022/09/25 20:06:26;;;;;;;5.70;2.03;;;10.20;99.90;;;;;;7390284;32;20183;-63
2022/09/25 20:10:28;;;;;;;4.20;1.55;;;10.10;99.90;;;;;;7387252;32;20194;-63
2022/09/25 20:14:30;;;;;;;4.80;2.70;;;9.90;99.90;;;;;;7391549;32;20103;-62
2022/09/25 20:18:31;;;;;;;3.72;1.90;;;9.80;99.90;;;;;;7386698;32;20198;-64
2022/09/25 20:22:33;;;;;;;11.35;4.93;;;9.70;99.90;;;;;;7395878;32;21008;-63
2022/09/25 20:26:35;;;;;;;6.53;2.75;;;9.60;99.90;;;;;;7389647;32;20197;-62
2022/09/25 20:30:37;;;;;;;7.50;2.87;;;9.60;99.90;;;;;;7389856;32;20122;-64
2022/09/25 20:34:38;;;;;;;8.30;2.80;;;9.50;99.90;;;;;;7392403;32;20272;-62
2022/09/25 20:38:41;;;;;;;4.35;1.83;;;9.40;99.90;;;;;;7386293;32;20165;-62
2022/09/25 20:42:42;;;;;;;8.55;2.20;;;9.30;99.90;;;;;;7396025;32;20125;-61
2022/09/25 20:46:44;;;;;;;6.72;1.90;;;9.20;99.90;;;;;;7383219;32;20202;-63
2022/09/25 20:50:53;;;;;;;3.40;1.90;;;9.20;99.90;;;;;;7386627;32;20530;-60
2022/09/25 20:54:55;;;;;;;4.28;1.67;;;9.00;99.90;;;;;;7394093;32;20141;-60
2022/09/25 20:58:58;;;;;;;6.12;2.35;;;9.00;99.90;;;;;;7394437;32;20111;-61
2022/09/25 21:03:00;;;;;;;5.10;1.35;;;9.00;99.90;;;;;;7401362;32;20096;-61
2022/09/25 21:07:02;;;;;;;8.98;1.30;;;8.90;99.90;;;;;;7400044;32;20185;-62
2022/09/25 21:11:06;;;;;;;6.12;1.48;;;8.80;99.90;;;;;;7395117;32;20110;-60
2022/09/25 21:15:08;;;;;;;2.10;1.20;;;8.80;99.90;;;;;;7397123;32;20110;-60
2022/09/25 21:19:11;;;;;;;3.65;1.52;;;8.60;99.90;;;;;;7387659;32;20115;-60
2022/09/25 21:23:13;;;;;;;3.42;1.25;;;8.60;99.90;;;;;;7401002;32;20769;-59
2022/09/25 21:27:15;;;;;;;5.15;1.50;;;8.60;99.90;;;;;;7396426;32;20173;-60
2022/09/25 21:31:30;;;;;;;3.92;1.87;;;8.50;99.90;;;;;;7398703;32;20106;-60
2022/09/25 21:35:32;;;;;;;5.12;1.25;;;8.50;99.90;;;;;;7399603;32;20507;-60
2022/09/25 21:39:33;;;;;;;7.78;1.50;;;8.60;99.90;;;;;;7391669;32;20257;-61
2022/09/25 21:43:35;;;;;;;7.12;1.60;;;8.60;99.90;;;;;;7393192;32;20234;-60
2022/09/25 21:47:37;;;;;;;5.18;1.35;;;8.60;99.90;;;;;;7392628;32;20530;-61
2022/09/25 21:51:42;;;;;;;3.85;1.25;;;8.60;99.90;;;;;;7397070;32;20166;-61
2022/09/25 21:55:43;;;;;;;4.50;1.60;;;8.70;99.90;;;;;;7389011;32;20103;-61
2022/09/25 21:59:45;;;;;;;3.20;1.30;;;8.80;99.90;;;;;;7392106;32;20114;-61
2022/09/25 22:03:49;;;;;;;5.05;1.60;;;8.80;99.90;;;;;;7390391;32;20233;-61